RJTL(METAR)
08/25 23:00
METAR RJTL 251400Z 07006KT 9999 FEW020 BKN100 24/19 Q1010 RMK 1CU020
5AC100 A2985=
戻る
トップページへ戻る
IMOC Co,.Ltd.